createdAt,value
2023-04-12T00:02:04.556Z,98645.06
2023-04-12T00:04:34.496Z,98642.16
2023-04-12T00:07:02.842Z,98641.97
2023-04-12T00:09:31.575Z,98645.88
2023-04-12T00:12:01.877Z,98639.25
2023-04-12T00:14:29.901Z,98636.56
2023-04-12T00:16:59.204Z,98633.06
2023-04-12T00:19:27.777Z,98630.38
2023-04-12T00:21:56.657Z,98628.72
2023-04-12T00:24:24.609Z,98623.94
2023-04-12T00:26:52.524Z,98623.34
2023-04-12T00:29:21.368Z,98614.88
2023-04-12T00:31:49.370Z,98616.50
2023-04-12T00:34:18.676Z,98618.16
2023-04-12T00:36:46.643Z,98614.88
2023-04-12T00:39:14.573Z,98616.91
2023-04-12T00:41:42.517Z,98611.97
2023-04-12T00:44:10.541Z,98608.22
2023-04-12T00:46:39.197Z,98611.53
2023-04-12T00:49:07.367Z,98606.81
2023-04-12T00:51:37.998Z,98604.13
2023-04-12T00:54:07.006Z,98610.91
2023-04-12T00:56:35.129Z,98611.53
2023-04-12T00:59:03.124Z,98616.91
2023-04-12T01:01:32.093Z,98612.81
2023-04-12T01:04:04.838Z,98618.56
2023-04-12T01:06:40.769Z,98609.47
2023-04-12T01:09:21.275Z,98588.41
2023-04-12T01:11:52.083Z,98608.44
2023-04-12T01:14:26.660Z,98604.50
2023-04-12T01:16:55.746Z,98606.59
2023-04-12T01:19:38.438Z,98602.84
2023-04-12T01:22:15.821Z,98597.09
2023-04-12T01:24:52.994Z,98590.69
2023-04-12T01:27:31.013Z,98598.94
2023-04-12T01:29:58.939Z,98601.22
2023-04-12T01:32:26.915Z,98584.69
2023-04-12T01:34:54.891Z,98588.41
2023-04-12T01:37:22.794Z,98581.38
2023-04-12T01:39:50.754Z,98579.34
2023-04-12T01:42:20.556Z,98588.00
2023-04-12T01:44:51.101Z,98584.06
2023-04-12T01:47:19.031Z,98581.38
2023-04-12T01:49:51.000Z,98583.66
2023-04-12T01:52:20.775Z,98582.25
2023-04-12T01:54:50.746Z,98585.53
2023-04-12T01:57:18.675Z,98588.44
2023-04-12T01:59:46.614Z,98585.53
2023-04-12T02:02:16.028Z,98590.91
2023-04-12T02:04:44.068Z,98586.34
2023-04-12T02:07:12.067Z,98588.22
2023-04-12T02:09:40.156Z,98579.38
2023-04-12T02:12:08.205Z,98577.31
2023-04-12T02:14:36.925Z,98573.56
2023-04-12T02:17:05.556Z,98574.00
2023-04-12T02:19:34.922Z,98570.69
2023-04-12T02:22:04.542Z,98566.97
2023-04-12T02:24:32.725Z,98575.22
2023-04-12T02:27:01.503Z,98579.38
2023-04-12T02:29:29.493Z,98574.19
2023-04-12T02:31:57.420Z,98575.63
2023-04-12T02:34:25.381Z,98581.81
2023-04-12T02:36:54.666Z,98582.66
2023-04-12T02:39:23.488Z,98577.28
2023-04-12T02:41:51.489Z,98576.06
2023-04-12T02:44:19.443Z,98575.03
2023-04-12T02:46:47.363Z,98571.94
2023-04-12T02:49:15.337Z,98561.19
2023-04-12T02:51:43.625Z,98557.25
2023-04-12T02:54:12.927Z,98565.31
2023-04-12T02:56:40.945Z,98569.66
2023-04-12T02:59:08.856Z,98573.16
2023-04-12T03:01:39.469Z,98557.44
2023-04-12T03:04:07.864Z,98574.78
2023-04-12T03:06:36.083Z,98573.16
2023-04-12T03:09:04.554Z,98572.53
2023-04-12T03:11:33.842Z,98565.31
2023-04-12T03:14:01.812Z,98563.66
2023-04-12T03:16:30.189Z,98558.28
2023-04-12T03:18:58.686Z,98558.50
2023-04-12T03:21:28.413Z,98557.47
2023-04-12T03:23:56.535Z,98565.31
2023-04-12T03:26:26.546Z,98568.63
2023-04-12T03:29:06.105Z,98577.72
2023-04-12T03:31:34.171Z,98567.78
2023-04-12T03:34:02.176Z,98578.09
2023-04-12T03:36:31.327Z,98574.41
2023-04-12T03:38:59.291Z,98577.72
2023-04-12T03:41:27.305Z,98581.81
2023-04-12T03:43:56.928Z,98586.59
2023-04-12T03:46:25.153Z,98593.00
2023-04-12T03:48:53.230Z,98590.53
2023-04-12T03:51:22.349Z,98588.66
2023-04-12T03:53:50.358Z,98589.50
2023-04-12T03:56:19.880Z,98584.75
2023-04-12T03:58:47.937Z,98589.50
2023-04-12T04:01:18.090Z,98587.25
2023-04-12T04:03:46.533Z,98585.59
2023-04-12T04:06:14.734Z,98588.03
2023-04-12T04:08:42.660Z,98602.09
2023-04-12T04:11:10.597Z,98594.66
2023-04-12T04:13:38.592Z,98599.19
2023-04-12T04:16:08.018Z,98597.16
2023-04-12T04:18:37.314Z,98595.69
2023-04-12T04:21:07.455Z,98595.50
2023-04-12T04:23:38.686Z,98595.91
2023-04-12T04:26:10.173Z,98600.91
2023-04-12T04:28:38.647Z,98596.53
2023-04-12T04:31:06.889Z,98600.06
2023-04-12T04:33:34.858Z,98600.06
2023-04-12T04:36:05.600Z,98598.00
2023-04-12T04:38:33.885Z,98594.25
2023-04-12T04:41:02.474Z,98602.31
2023-04-12T04:43:30.921Z,98598.81
2023-04-12T04:45:59.031Z,98606.88
2023-04-12T04:48:27.036Z,98602.94
2023-04-12T04:50:55.008Z,98602.91
2023-04-12T04:53:24.368Z,98604.16
2023-04-12T04:55:58.922Z,98608.50
2023-04-12T04:58:26.854Z,98607.06
2023-04-12T05:00:57.881Z,98604.78
2023-04-12T05:03:30.350Z,98596.72
2023-04-12T05:05:58.897Z,98612.84
2023-04-12T05:08:28.793Z,98609.09
2023-04-12T05:10:56.920Z,98611.22
2023-04-12T05:13:24.904Z,98609.97
2023-04-12T05:15:52.851Z,98608.97
2023-04-12T05:18:20.834Z,98614.94
2023-04-12T05:20:48.901Z,98607.91
2023-04-12T05:23:17.425Z,98618.25
2023-04-12T05:25:48.289Z,98619.91
2023-04-12T05:28:17.520Z,98623.63
2023-04-12T05:30:46.390Z,98622.59
2023-04-12T05:33:14.397Z,98622.59
2023-04-12T05:35:42.361Z,98623.63
2023-04-12T05:38:10.348Z,98621.97
2023-04-12T05:40:38.776Z,98617.00
2023-04-12T05:43:08.611Z,98614.53
2023-04-12T05:45:36.600Z,98613.50
2023-04-12T05:48:04.871Z,98605.84
2023-04-12T05:50:32.874Z,98608.53
2023-04-12T05:53:01.741Z,98608.34
2023-04-12T05:55:29.706Z,98599.66
2023-04-12T05:57:57.699Z,98607.72
2023-04-12T06:00:27.882Z,98598.00
2023-04-12T06:02:57.121Z,98593.47
2023-04-12T06:05:25.377Z,98594.28
2023-04-12T06:07:53.386Z,98593.03
2023-04-12T06:10:21.444Z,98585.59
2023-04-12T06:12:49.427Z,98587.22
2023-04-12T06:15:19.720Z,98589.38
2023-04-12T06:17:50.926Z,98587.47
2023-04-12T06:20:19.251Z,98596.03
2023-04-12T06:22:47.209Z,98577.31
2023-04-12T06:25:16.524Z,98584.94
2023-04-12T06:27:44.443Z,98588.41
2023-04-12T06:30:12.947Z,98584.44
2023-04-12T06:32:40.899Z,98582.06
2023-04-12T06:35:10.730Z,98563.59
2023-04-12T06:37:38.735Z,98582.88
2023-04-12T06:40:08.148Z,98573.63
2023-04-12T06:42:36.634Z,98572.41
2023-04-12T06:45:04.952Z,98572.13
2023-04-12T06:47:33.217Z,98569.94
2023-04-12T06:50:01.251Z,98570.50
2023-04-12T06:52:30.699Z,98577.38
2023-04-12T06:54:58.650Z,98567.94
2023-04-12T06:57:26.618Z,98569.41
2023-04-12T06:59:55.324Z,98575.06
2023-04-12T07:02:23.328Z,98571.34
2023-04-12T07:04:53.379Z,98575.41
2023-04-12T07:07:21.566Z,98569.03
2023-04-12T07:09:52.362Z,98575.28
2023-04-12T07:12:20.311Z,98569.66
2023-04-12T07:14:48.313Z,98567.56
2023-04-12T07:17:16.284Z,98578.41
2023-04-12T07:19:44.620Z,98585.34
2023-04-12T07:22:14.079Z,98583.34
2023-04-12T07:24:42.195Z,98588.25
2023-04-12T07:27:11.942Z,98590.75
2023-04-12T07:29:39.852Z,98592.25
2023-04-12T07:32:08.918Z,98592.25
2023-04-12T07:34:37.842Z,98591.44
2023-04-12T07:37:06.219Z,98588.03
2023-04-12T07:39:35.026Z,98586.63
2023-04-12T07:42:03.253Z,98576.97
2023-04-12T07:44:35.606Z,98581.97
2023-04-12T07:47:05.140Z,98584.06
2023-04-12T07:49:33.130Z,98588.28
2023-04-12T07:52:01.122Z,98594.34
2023-04-12T07:54:29.127Z,98592.13
2023-04-12T07:57:00.681Z,98589.56
2023-04-12T07:59:29.092Z,98582.13
2023-04-12T08:01:58.539Z,98578.09
2023-04-12T08:04:28.392Z,98576.31
2023-04-12T08:06:56.498Z,98565.38
2023-04-12T08:09:24.674Z,98561.09
2023-04-12T08:11:52.660Z,98575.25
2023-04-12T08:14:21.217Z,98567.59
2023-04-12T08:16:49.158Z,98569.84
2023-04-12T08:19:19.507Z,98572.13
2023-04-12T08:21:47.678Z,98569.50
2023-04-12T08:24:15.653Z,98559.47
2023-04-12T08:26:43.593Z,98559.59
2023-04-12T08:29:11.492Z,98559.78
2023-04-12T08:31:39.475Z,98571.72
2023-04-12T08:34:07.577Z,98565.41
2023-04-12T08:36:36.890Z,98569.50
2023-04-12T08:39:04.993Z,98564.53
2023-04-12T08:41:33.020Z,98562.22
2023-04-12T08:44:00.960Z,98574.06
2023-04-12T08:46:30.141Z,98564.06
2023-04-12T08:48:58.504Z,98568.81
2023-04-12T08:51:27.142Z,98575.75
2023-04-12T08:53:56.732Z,98582.28
2023-04-12T08:56:25.154Z,98574.50
2023-04-12T08:58:53.138Z,98571.75
2023-04-12T09:01:21.882Z,98582.84
2023-04-12T09:03:50.006Z,98578.03
2023-04-12T09:06:18.025Z,98574.84
2023-04-12T09:08:53.520Z,98574.81
2023-04-12T09:11:26.555Z,98564.06
2023-04-12T09:13:55.488Z,98570.78
2023-04-12T09:16:39.605Z,98578.06
2023-04-12T09:19:07.690Z,98567.13
2023-04-12T09:21:36.102Z,98570.75
2023-04-12T09:24:06.317Z,98577.81
2023-04-12T09:26:35.784Z,98565.34
2023-04-12T09:29:03.755Z,98573.59
2023-04-12T09:31:31.913Z,98562.63
2023-04-12T09:34:08.478Z,98567.13
2023-04-12T09:36:39.677Z,98573.50
2023-04-12T09:39:07.823Z,98568.06
2023-04-12T09:41:37.364Z,98570.16
2023-04-12T09:44:05.333Z,98571.19
2023-04-12T09:46:33.319Z,98576.13
2023-04-12T09:49:03.325Z,98574.25
2023-04-12T09:51:32.781Z,98572.53
2023-04-12T09:54:01.774Z,98576.03
2023-04-12T09:56:30.343Z,98572.19
2023-04-12T09:59:02.542Z,98583.72
2023-04-12T10:01:31.229Z,98571.59
2023-04-12T10:03:59.612Z,98581.63
2023-04-12T10:06:28.144Z,98576.84
2023-04-12T10:08:56.368Z,98562.78
2023-04-12T10:11:25.234Z,98534.59
2023-04-12T10:13:55.811Z,98570.41
2023-04-12T10:16:25.443Z,98557.22
2023-04-12T10:18:53.587Z,98551.47
2023-04-12T10:21:21.661Z,98562.25
2023-04-12T10:23:49.661Z,98561.25
2023-04-12T10:26:17.603Z,98559.88
2023-04-12T10:28:47.660Z,98555.50
2023-04-12T10:31:37.760Z,98555.75
2023-04-12T10:34:06.729Z,98556.34
2023-04-12T10:36:58.942Z,98560.63
2023-04-12T10:39:37.706Z,98554.38
2023-04-12T10:42:23.048Z,98554.28
2023-04-12T10:44:52.090Z,98550.09
2023-04-12T10:47:53.261Z,98549.88
2023-04-12T10:50:24.977Z,98541.00
2023-04-12T10:53:25.201Z,98552.47
2023-04-12T10:55:55.156Z,98545.50
2023-04-12T10:58:57.792Z,98555.78
2023-04-12T11:01:26.655Z,98554.34
2023-04-12T11:04:17.681Z,98554.31
2023-04-12T11:07:01.892Z,98546.53
2023-04-12T11:09:30.734Z,98552.19
2023-04-12T11:11:59.672Z,98565.81
2023-04-12T11:14:30.582Z,98554.75
2023-04-12T11:17:20.993Z,98552.16
2023-04-12T11:19:51.718Z,98545.38
2023-04-12T11:22:21.768Z,98553.59
2023-04-12T11:24:50.329Z,98556.31
2023-04-12T11:27:18.439Z,98550.31
2023-04-12T11:29:47.103Z,98548.44
2023-04-12T11:32:15.523Z,98554.28
2023-04-12T11:34:46.144Z,98563.00
2023-04-12T11:37:14.116Z,98562.16
2023-04-12T11:39:44.178Z,98569.97
2023-04-12T11:42:16.773Z,98582.72
2023-04-12T11:44:56.203Z,98580.47
2023-04-12T11:47:26.296Z,98572.97
2023-04-12T11:49:54.967Z,98582.78
2023-04-12T11:52:23.684Z,98592.91
2023-04-12T11:54:58.904Z,98598.28
2023-04-12T11:57:28.896Z,98592.47
2023-04-12T11:59:58.268Z,98591.88
2023-04-12T12:02:29.104Z,98598.53
2023-04-12T12:04:59.933Z,98600.78
2023-04-12T12:07:28.105Z,98605.25
2023-04-12T12:09:57.608Z,98601.00
2023-04-12T12:12:25.646Z,98597.69
2023-04-12T12:14:53.576Z,98605.28
2023-04-12T12:17:21.519Z,98606.97
2023-04-12T12:19:49.466Z,98593.47
2023-04-12T12:22:18.371Z,98600.72
2023-04-12T12:24:47.351Z,98602.44
2023-04-12T12:27:18.864Z,98599.41
2023-04-12T12:29:53.425Z,98600.78
2023-04-12T12:32:23.357Z,98599.66
2023-04-12T12:34:53.171Z,98592.00
2023-04-12T12:37:27.788Z,98596.53
2023-04-12T12:40:11.590Z,98597.25
2023-04-12T12:42:48.596Z,98599.41
2023-04-12T12:45:17.327Z,98597.38
2023-04-12T12:47:49.850Z,98599.34
2023-04-12T12:50:18.812Z,98606.38
2023-04-12T12:52:47.369Z,98606.50
2023-04-12T12:55:15.524Z,98598.28
2023-04-12T12:57:44.418Z,98605.84
2023-04-12T13:00:18.067Z,98606.88
2023-04-12T13:02:46.145Z,98603.53
2023-04-12T13:05:14.396Z,98609.63
2023-04-12T13:07:42.459Z,98599.34
2023-04-12T13:10:10.415Z,98595.75
2023-04-12T13:12:38.364Z,98599.44
2023-04-12T13:17:42.600Z,98607.38
2023-04-12T13:20:11.130Z,98610.28
2023-04-12T13:22:39.132Z,98615.06
2023-04-12T13:25:08.108Z,98604.72
2023-04-12T13:27:36.021Z,98609.94
2023-04-12T13:30:04.391Z,98613.75
2023-04-12T13:32:32.348Z,98625.13
2023-04-12T13:35:01.807Z,98618.81
2023-04-12T13:37:29.825Z,98627.19
2023-04-12T13:39:57.750Z,98619.47
2023-04-12T13:42:25.793Z,98616.16
2023-04-12T13:44:53.745Z,98625.09
2023-04-12T13:47:21.734Z,98615.34
2023-04-12T13:49:49.681Z,98622.53
2023-04-12T13:52:19.061Z,98617.34
2023-04-12T13:54:46.995Z,98624.72
2023-04-12T13:57:14.959Z,98632.38
2023-04-12T13:59:42.921Z,98624.16
2023-04-12T14:02:10.885Z,98626.06
2023-04-12T14:04:39.451Z,98627.44
2023-04-12T14:07:07.479Z,98634.28
2023-04-12T14:09:36.859Z,98642.63
2023-04-12T14:12:04.879Z,98638.16
2023-04-12T14:14:32.828Z,98636.38
2023-04-12T14:17:01.972Z,98641.44
2023-04-12T14:19:30.100Z,98640.97
2023-04-12T14:21:58.064Z,98664.88
2023-04-12T14:24:26.741Z,98658.38
2023-04-12T14:26:57.219Z,98664.97
2023-04-12T14:29:25.122Z,98663.31
2023-04-12T14:31:53.034Z,98669.28
2023-04-12T14:34:21.175Z,98676.28
2023-04-12T14:36:49.114Z,98682.75
2023-04-12T14:39:17.108Z,98681.44
2023-04-12T14:41:45.063Z,98689.78
2023-04-12T14:44:14.380Z,98688.28
2023-04-12T14:46:42.385Z,98689.66
2023-04-12T14:49:10.374Z,98680.56
2023-04-12T14:51:38.292Z,98689.19
2023-04-12T14:54:06.408Z,98689.28
2023-04-12T14:56:42.207Z,98682.59
2023-04-12T14:59:14.571Z,98684.22
2023-04-12T15:01:42.734Z,98681.19
2023-04-12T15:04:11.094Z,98680.44
2023-04-12T15:06:42.586Z,98677.94
2023-04-12T15:09:10.713Z,98673.28
2023-04-12T15:11:39.833Z,98669.78
2023-04-12T15:14:07.803Z,98673.06
2023-04-12T15:16:38.181Z,98673.34
2023-04-12T15:19:13.306Z,98680.66
2023-04-12T15:21:44.574Z,98676.31
2023-04-12T15:24:12.558Z,98665.13
2023-04-12T15:26:40.504Z,98660.72
2023-04-12T15:29:09.448Z,98667.06
2023-04-12T15:31:38.930Z,98670.63
2023-04-12T15:34:06.864Z,98679.22
2023-04-12T15:36:34.945Z,98671.94
2023-04-12T15:39:04.758Z,98674.72
2023-04-12T15:41:34.836Z,98677.84
2023-04-12T15:44:02.753Z,98684.34
2023-04-12T15:46:30.686Z,98681.44
2023-04-12T15:49:00.105Z,98688.00
2023-04-12T15:51:28.226Z,98693.09
2023-04-12T15:53:56.499Z,98689.94
2023-04-12T15:56:25.449Z,98686.31
2023-04-12T15:58:53.560Z,98690.59
2023-04-12T16:01:21.560Z,98690.34
2023-04-12T16:03:50.838Z,98686.63
2023-04-12T16:06:20.788Z,98685.56
2023-04-12T16:08:49.313Z,98680.38
2023-04-12T16:11:18.037Z,98683.31
2023-04-12T16:13:48.174Z,98681.44
2023-04-12T16:16:17.579Z,98682.03
2023-04-12T16:18:45.839Z,98678.16
2023-04-12T16:21:16.738Z,98683.56
2023-04-12T16:23:46.123Z,98685.91
2023-04-12T16:26:14.695Z,98681.06
2023-04-12T16:28:44.293Z,98675.31
2023-04-12T16:31:15.644Z,98681.78
2023-04-12T16:33:45.280Z,98682.69
2023-04-12T16:36:13.857Z,98686.00
2023-04-12T16:38:41.819Z,98684.34
2023-04-12T16:41:11.279Z,98681.06
2023-04-12T16:43:39.232Z,98698.31
2023-04-12T16:46:07.711Z,98700.41
2023-04-12T16:48:38.642Z,98696.72
2023-04-12T16:51:06.933Z,98697.72
2023-04-12T16:53:34.892Z,98696.66
2023-04-12T16:56:02.876Z,98704.44
2023-04-12T16:58:33.118Z,98712.75
2023-04-12T17:01:01.956Z,98711.84
2023-04-12T17:03:30.281Z,98722.38
2023-04-12T17:05:58.318Z,98718.72
2023-04-12T17:08:26.271Z,98723.75
2023-04-12T17:10:54.476Z,98731.84
2023-04-12T17:13:22.515Z,98731.72
2023-04-12T17:15:51.873Z,98727.94
2023-04-12T17:18:19.845Z,98732.91
2023-04-12T17:20:47.881Z,98737.13
2023-04-12T17:23:16.903Z,98739.34
2023-04-12T17:25:45.061Z,98740.88
2023-04-12T17:28:13.129Z,98741.31
2023-04-12T17:30:41.527Z,98755.44
2023-04-12T17:33:10.875Z,98752.56
2023-04-12T17:35:40.606Z,98759.84
2023-04-12T17:38:08.556Z,98759.19
2023-04-12T17:40:37.672Z,98762.31
2023-04-12T17:43:05.720Z,98763.03
2023-04-12T17:45:33.884Z,98763.06
2023-04-12T17:48:01.931Z,98769.56
2023-04-12T17:50:31.346Z,98773.97
2023-04-12T17:53:00.093Z,98775.22
2023-04-12T17:55:28.504Z,98779.81
2023-04-12T17:57:56.451Z,98792.03
2023-04-12T18:00:25.350Z,98790.38
2023-04-12T18:02:53.414Z,98783.94
2023-04-12T18:05:21.624Z,98787.69
2023-04-12T18:07:51.491Z,98790.03
2023-04-12T18:10:21.575Z,98790.59
2023-04-12T18:12:50.186Z,98789.81
2023-04-12T18:15:18.281Z,98805.41
2023-04-12T18:17:46.285Z,98809.75
2023-04-12T18:20:14.284Z,98807.63
2023-04-12T18:22:44.113Z,98811.84
2023-04-12T18:25:14.036Z,98821.06
2023-04-12T18:27:42.084Z,98813.19
2023-04-12T18:30:10.482Z,98821.28
2023-04-12T18:32:38.466Z,98821.06
2023-04-12T18:35:07.397Z,98824.28
2023-04-12T18:37:35.417Z,98822.41
2023-04-12T18:40:06.927Z,98826.97
2023-04-12T18:42:36.292Z,98819.53
2023-04-12T18:45:04.974Z,98819.75
2023-04-12T18:47:33.066Z,98819.16
2023-04-12T18:50:01.112Z,98819.16
2023-04-12T18:52:29.073Z,98829.50
2023-04-12T18:54:57.083Z,98825.75
2023-04-12T18:57:25.028Z,98827.84
2023-04-12T18:59:54.361Z,98834.75
2023-04-12T19:02:22.461Z,98835.78
2023-04-12T19:04:50.511Z,98836.63
2023-04-12T19:07:18.793Z,98848.53
2023-04-12T19:09:47.025Z,98837.66
2023-04-12T19:12:14.934Z,98844.50
2023-04-12T19:14:42.848Z,98849.13
2023-04-12T19:17:12.184Z,98840.88
2023-04-12T19:19:40.045Z,98849.13
2023-04-12T19:22:07.971Z,98852.50
2023-04-12T19:24:36.182Z,98848.53
2023-04-12T19:27:04.174Z,98850.00
2023-04-12T19:29:32.415Z,98853.78
2023-04-12T19:32:02.187Z,98866.00
2023-04-12T19:34:31.982Z,98868.09
2023-04-12T19:37:00.262Z,98866.72
2023-04-12T19:39:28.249Z,98860.03
2023-04-12T19:41:56.464Z,98868.94
2023-04-12T19:44:25.796Z,98870.44
2023-04-12T19:46:53.951Z,98881.66
2023-04-12T19:49:22.132Z,98872.97
2023-04-12T19:51:51.881Z,98876.69
2023-04-12T19:54:23.539Z,98872.13
2023-04-12T19:56:52.611Z,98877.53
2023-04-12T19:59:21.056Z,98871.56
2023-04-12T20:01:49.108Z,98885.72
2023-04-12T20:04:17.245Z,98886.09
2023-04-12T20:06:45.580Z,98885.28
2023-04-12T20:09:15.366Z,98890.91
2023-04-12T20:11:43.380Z,98895.91
2023-04-12T20:14:11.334Z,98883.84
2023-04-12T20:16:41.611Z,98895.47
2023-04-12T20:19:09.563Z,98901.78
2023-04-12T20:21:37.787Z,98901.75
2023-04-12T20:24:08.114Z,98897.19
2023-04-12T20:26:37.475Z,98889.72
2023-04-12T20:29:05.538Z,98905.44
2023-04-12T20:31:33.704Z,98908.81
2023-04-12T20:34:01.731Z,98905.06
2023-04-12T20:36:30.418Z,98919.19
2023-04-12T20:38:58.519Z,98909.44
2023-04-12T20:41:26.569Z,98914.19
2023-04-12T20:43:56.154Z,98909.69
2023-04-12T20:46:25.964Z,98919.59
2023-04-12T20:48:56.327Z,98920.22
2023-04-12T20:51:24.641Z,98920.00
2023-04-12T20:53:52.592Z,98922.72
2023-04-12T20:56:20.511Z,98914.38
2023-04-12T20:58:49.777Z,98924.00
2023-04-12T21:01:19.556Z,98906.78
2023-04-12T21:03:47.776Z,98929.97
2023-04-12T21:06:17.022Z,98932.03
2023-04-12T21:08:47.315Z,98934.53
2023-04-12T21:11:16.335Z,98943.25
2023-04-12T21:13:44.626Z,98933.72
2023-04-12T21:16:16.044Z,98931.84
2023-04-12T21:18:45.536Z,98939.94
2023-04-12T21:21:13.423Z,98935.16
2023-04-12T21:23:41.337Z,98932.03
2023-04-12T21:26:09.251Z,98939.50
2023-04-12T21:28:38.455Z,98931.41
2023-04-12T21:31:07.034Z,98930.19
2023-04-12T21:33:36.553Z,98927.47
2023-04-12T21:36:06.561Z,98923.34
2023-04-12T21:38:34.469Z,98935.38
2023-04-12T21:41:06.544Z,98925.63
2023-04-12T21:43:34.531Z,98930.00
2023-04-12T21:46:02.534Z,98933.34
2023-04-12T21:48:30.597Z,98905.56
2023-04-12T21:50:58.512Z,98921.31
2023-04-12T21:53:28.514Z,98927.56
2023-04-12T21:55:56.414Z,98924.88
2023-04-12T21:58:24.323Z,98933.78
2023-04-12T22:00:52.646Z,98936.28
2023-04-12T22:03:21.508Z,98937.97
2023-04-12T22:06:03.022Z,98937.97
2023-04-12T22:08:34.254Z,98942.13
2023-04-12T22:11:02.384Z,98938.81
2023-04-12T22:13:30.837Z,98952.09
2023-04-12T22:16:00.725Z,98957.94
2023-04-12T22:18:28.716Z,98954.22
2023-04-12T22:20:57.836Z,98953.00
2023-04-12T22:23:26.287Z,98956.75
2023-04-12T22:25:58.619Z,98953.41
2023-04-12T22:28:26.585Z,98945.13
2023-04-12T22:30:57.149Z,98932.09
2023-04-12T22:33:25.272Z,98933.97
2023-04-12T22:35:53.250Z,98940.41
2023-04-12T22:38:21.424Z,98936.63
2023-04-12T22:40:49.429Z,98936.44
2023-04-12T22:43:21.009Z,98941.00
2023-04-12T22:45:49.529Z,98933.50
2023-04-12T22:48:17.472Z,98925.66
2023-04-12T22:50:45.789Z,98937.00
2023-04-12T22:53:15.883Z,98926.00
2023-04-12T22:55:45.012Z,98937.41
2023-04-12T22:58:12.963Z,98938.00
2023-04-12T23:00:42.258Z,98948.31
2023-04-12T23:03:11.228Z,98947.88
2023-04-12T23:05:42.293Z,98949.88
2023-04-12T23:08:10.453Z,98952.75
2023-04-12T23:10:38.869Z,98953.56
2023-04-12T23:13:07.761Z,98954.34
2023-04-12T23:15:35.865Z,98958.47
2023-04-12T23:18:05.644Z,98960.53
2023-04-12T23:20:33.622Z,98966.25
2023-04-12T23:23:01.573Z,98959.22
2023-04-12T23:25:38.558Z,98965.63
2023-04-12T23:28:07.904Z,98957.88
2023-04-12T23:30:35.855Z,98959.94
2023-04-12T23:33:05.308Z,98964.72
2023-04-12T23:35:33.282Z,98968.50
2023-04-12T23:38:01.560Z,98968.44
2023-04-12T23:40:30.585Z,98971.09
2023-04-12T23:42:58.749Z,98975.78
2023-04-12T23:45:27.313Z,98970.19
2023-04-12T23:47:55.300Z,98975.53
2023-04-12T23:50:25.287Z,98966.00
2023-04-12T23:52:53.919Z,98970.50
2023-04-12T23:55:21.872Z,98975.00
2023-04-12T23:57:49.819Z,98961.72
